createdAt,value
2018-12-26T00:01:23.760Z,72.71
2018-12-26T00:03:53.064Z,72.87
2018-12-26T00:06:23.425Z,74.49
2018-12-26T00:08:55.040Z,75.36
2018-12-26T00:11:24.203Z,72.43
2018-12-26T00:13:54.712Z,71.56
2018-12-26T00:16:23.891Z,74.18
2018-12-26T00:18:56.152Z,74.71
2018-12-26T00:21:25.279Z,73.71
2018-12-26T00:23:54.405Z,74.33
2018-12-26T00:26:23.657Z,74.65
2018-12-26T00:28:52.741Z,75.24
2018-12-26T00:31:25.863Z,73.47
2018-12-26T00:33:56.111Z,71.57
2018-12-26T00:36:26.901Z,71.83
2018-12-26T00:39:00.154Z,71.78
2018-12-26T00:41:29.274Z,73.11
2018-12-26T00:44:00.342Z,71.17
2018-12-26T00:46:29.497Z,69.30
2018-12-26T00:48:58.983Z,72.36
2018-12-26T00:51:28.362Z,72.10
2018-12-26T00:54:04.621Z,72.34
2018-12-26T00:56:38.928Z,70.29
2018-12-26T00:59:08.159Z,70.62
2018-12-26T01:01:37.275Z,73.26
2018-12-26T01:04:06.357Z,72.70
2018-12-26T01:06:35.556Z,70.72
2018-12-26T01:09:06.867Z,72.03
2018-12-26T01:11:38.575Z,70.96
2018-12-26T01:14:07.660Z,71.65
2018-12-26T01:16:38.686Z,72.21
2018-12-26T01:19:09.259Z,72.34
2018-12-26T01:21:42.147Z,70.27
2018-12-26T01:24:11.228Z,71.76
2018-12-26T01:26:40.341Z,71.26
2018-12-26T01:29:12.784Z,72.04
2018-12-26T01:31:42.153Z,71.51
2018-12-26T01:34:12.376Z,69.61
2018-12-26T01:36:41.481Z,73.27
2018-12-26T01:39:10.556Z,76.07
2018-12-26T01:41:39.690Z,76.99
2018-12-26T01:44:10.509Z,75.31
2018-12-26T01:46:39.607Z,75.27
2018-12-26T01:49:09.712Z,76.43
2018-12-26T01:51:42.382Z,75.18
2018-12-26T01:54:12.363Z,75.11
2018-12-26T01:56:41.863Z,75.52
2018-12-26T01:59:12.362Z,78.39
2018-12-26T02:01:41.457Z,78.72
2018-12-26T02:04:14.058Z,80.31
2018-12-26T02:06:46.063Z,80.95
2018-12-26T02:09:15.805Z,80.92
2018-12-26T02:11:48.876Z,79.78
2018-12-26T02:14:18.050Z,80.21
2018-12-26T02:16:47.342Z,81.18
2018-12-26T02:19:16.466Z,80.91
2018-12-26T02:21:45.668Z,79.74
2018-12-26T02:24:19.078Z,80.25
2018-12-26T02:26:48.258Z,81.26
2018-12-26T02:29:18.763Z,80.46
2018-12-26T02:31:51.159Z,79.55
2018-12-26T02:34:23.551Z,80.44
2018-12-26T02:36:54.410Z,81.69
2018-12-26T02:39:26.326Z,80.50
2018-12-26T02:41:58.674Z,79.66
2018-12-26T02:44:27.795Z,79.28
2018-12-26T02:46:56.895Z,79.44
2018-12-26T02:49:27.460Z,81.20
2018-12-26T02:51:58.675Z,80.98
2018-12-26T02:54:35.960Z,80.21
2018-12-26T02:57:05.954Z,79.78
2018-12-26T02:59:35.104Z,77.54
2018-12-26T03:02:07.885Z,79.81
2018-12-26T03:04:42.573Z,77.13
2018-12-26T03:07:15.170Z,75.17
2018-12-26T03:09:47.013Z,78.42
2018-12-26T03:12:17.254Z,78.89
2018-12-26T03:14:46.423Z,77.94
2018-12-26T03:17:15.703Z,77.37
2018-12-26T03:19:49.992Z,78.42
2018-12-26T03:22:21.655Z,77.95
2018-12-26T03:24:50.743Z,78.42
2018-12-26T03:27:19.850Z,77.92
2018-12-26T03:29:48.926Z,79.57
2018-12-26T03:32:19.521Z,79.63
2018-12-26T03:34:48.656Z,80.79
2018-12-26T03:37:20.769Z,79.75
2018-12-26T03:39:49.990Z,76.31
2018-12-26T03:42:19.225Z,77.72
2018-12-26T03:44:49.225Z,77.31
2018-12-26T03:47:22.716Z,77.82
2018-12-26T03:49:59.112Z,76.66
2018-12-26T03:52:32.972Z,77.22
2018-12-26T03:55:02.199Z,76.79
2018-12-26T03:57:33.665Z,77.08
2018-12-26T04:00:02.755Z,77.22
2018-12-26T04:02:33.481Z,76.22
2018-12-26T04:05:02.679Z,75.95
2018-12-26T04:07:36.237Z,77.10
2018-12-26T04:10:05.844Z,78.28
2018-12-26T04:12:35.557Z,78.61
2018-12-26T04:15:05.017Z,76.21
2018-12-26T04:17:40.166Z,75.04
2018-12-26T04:20:05.573Z,74.85
2018-12-26T04:22:36.361Z,75.35
2018-12-26T04:25:05.487Z,77.46
2018-12-26T04:27:35.691Z,75.39
2018-12-26T04:30:14.204Z,73.30
2018-12-26T04:32:43.318Z,72.37
2018-12-26T04:35:12.427Z,71.77
2018-12-26T04:37:41.512Z,71.04
2018-12-26T04:40:10.633Z,74.46
2018-12-26T04:42:41.275Z,74.64
2018-12-26T04:45:12.443Z,75.65
2018-12-26T04:47:41.603Z,75.88
2018-12-26T04:50:10.748Z,75.22
2018-12-26T04:52:39.850Z,74.54
2018-12-26T04:55:08.970Z,73.76
2018-12-26T04:57:39.698Z,73.98
2018-12-26T05:00:13.421Z,75.95
2018-12-26T05:02:43.056Z,77.32
2018-12-26T05:05:12.153Z,78.12
2018-12-26T05:07:41.241Z,77.50
2018-12-26T05:10:10.356Z,75.36
2018-12-26T05:12:39.483Z,76.76
2018-12-26T05:15:09.888Z,77.44
2018-12-26T05:17:40.777Z,78.84
2018-12-26T05:20:09.839Z,80.04
2018-12-26T05:22:40.052Z,78.72
2018-12-26T05:25:10.295Z,75.74
2018-12-26T05:27:43.184Z,75.58
2018-12-26T05:30:18.600Z,76.46
2018-12-26T05:32:50.756Z,74.39
2018-12-26T05:35:19.866Z,73.03
2018-12-26T05:37:48.980Z,71.05
2018-12-26T05:40:18.056Z,72.71
2018-12-26T05:42:47.153Z,72.12
2018-12-26T05:45:16.306Z,72.44
2018-12-26T05:47:47.178Z,72.34
2018-12-26T05:50:16.266Z,72.51
2018-12-26T05:52:45.388Z,73.98
2018-12-26T05:55:16.167Z,73.43
2018-12-26T05:57:45.356Z,72.45
2018-12-26T06:00:20.498Z,72.72
2018-12-26T06:02:53.623Z,74.08
2018-12-26T06:05:22.927Z,73.73
2018-12-26T06:07:53.597Z,75.61
2018-12-26T06:10:22.743Z,76.10
2018-12-26T06:12:51.830Z,74.81
2018-12-26T06:15:21.291Z,74.77
2018-12-26T06:17:50.372Z,74.97
2018-12-26T06:20:22.348Z,75.09
2018-12-26T06:22:56.513Z,75.32
2018-12-26T06:25:29.507Z,74.71
2018-12-26T06:27:58.609Z,73.63
2018-12-26T06:30:31.282Z,72.86
2018-12-26T06:33:02.659Z,73.83
2018-12-26T06:35:31.748Z,74.88
2018-12-26T06:38:01.598Z,73.93
2018-12-26T06:40:32.801Z,74.00
2018-12-26T06:43:02.404Z,71.61
2018-12-26T06:45:31.590Z,69.56
2018-12-26T06:48:00.682Z,72.59
2018-12-26T06:50:29.981Z,74.25
2018-12-26T06:53:03.062Z,72.67
2018-12-26T06:55:33.568Z,71.43
2018-12-26T06:58:03.889Z,72.01
2018-12-26T07:00:33.409Z,70.36
2018-12-26T07:03:12.793Z,72.34
2018-12-26T07:05:41.971Z,71.23
2018-12-26T07:08:11.067Z,72.01
2018-12-26T07:10:40.204Z,75.01
2018-12-26T07:13:09.704Z,73.57
2018-12-26T07:15:39.306Z,72.63
2018-12-26T07:18:08.847Z,74.14
2018-12-26T07:20:40.524Z,71.18
2018-12-26T07:23:09.633Z,70.48
2018-12-26T07:25:40.557Z,70.83
2018-12-26T07:28:09.675Z,69.64
2018-12-26T07:30:38.743Z,72.53
2018-12-26T07:33:09.347Z,73.65
2018-12-26T07:35:38.522Z,75.77
2018-12-26T07:38:12.124Z,78.41
2018-12-26T07:40:42.346Z,75.81
2018-12-26T07:43:11.491Z,74.73
2018-12-26T07:45:42.763Z,74.60
2018-12-26T07:48:14.866Z,75.06
2018-12-26T07:50:47.029Z,78.07
2018-12-26T07:53:16.210Z,76.78
2018-12-26T07:55:45.512Z,73.66
2018-12-26T07:58:17.673Z,72.76
2018-12-26T08:00:47.770Z,75.02
2018-12-26T08:03:21.586Z,77.26
2018-12-26T08:05:51.822Z,76.33
2018-12-26T08:08:22.327Z,74.81
2018-12-26T08:10:54.652Z,74.11
2018-12-26T08:13:23.757Z,73.07
2018-12-26T08:15:52.864Z,72.44
2018-12-26T08:18:23.386Z,73.18
2018-12-26T08:20:52.723Z,69.99
2018-12-26T08:23:24.897Z,73.49
2018-12-26T08:25:54.033Z,74.37
2018-12-26T08:28:29.359Z,73.44
2018-12-26T08:30:54.048Z,74.29
2018-12-26T08:33:23.185Z,73.98
2018-12-26T08:35:52.328Z,73.07
2018-12-26T08:38:22.468Z,69.98
2018-12-26T08:40:53.322Z,70.86
2018-12-26T08:43:24.243Z,70.16
2018-12-26T08:45:58.261Z,70.66
2018-12-26T08:48:47.089Z,73.86
2018-12-26T08:51:18.648Z,73.79
2018-12-26T08:53:47.745Z,71.60
2018-12-26T08:56:17.379Z,69.08
2018-12-26T08:58:46.836Z,67.48
2018-12-26T09:01:16.346Z,68.50
2018-12-26T09:03:48.158Z,69.77
2018-12-26T09:06:24.363Z,72.66
2018-12-26T09:08:55.335Z,73.80
2018-12-26T09:11:26.040Z,70.76
2018-12-26T09:13:55.166Z,68.81
2018-12-26T09:16:24.304Z,67.81
2018-12-26T09:18:54.384Z,67.54
2018-12-26T09:21:24.921Z,66.82
2018-12-26T09:23:57.329Z,67.48
2018-12-26T09:26:28.445Z,68.41
2018-12-26T09:28:57.525Z,68.98
2018-12-26T09:31:26.624Z,70.29
2018-12-26T09:33:55.737Z,70.00
2018-12-26T09:36:24.921Z,69.52
2018-12-26T09:38:57.891Z,69.23
2018-12-26T09:41:27.302Z,66.92
2018-12-26T09:44:01.885Z,67.00
2018-12-26T09:46:30.972Z,66.42
2018-12-26T09:49:00.096Z,66.43
2018-12-26T09:51:29.259Z,71.62
2018-12-26T09:54:03.607Z,68.49
2018-12-26T09:56:35.232Z,68.10
2018-12-26T09:59:04.355Z,67.38
2018-12-26T10:01:33.503Z,67.18
2018-12-26T10:04:03.020Z,67.25
2018-12-26T10:06:32.146Z,70.28
2018-12-26T10:09:07.717Z,72.71
2018-12-26T10:11:38.726Z,71.04
2018-12-26T10:14:07.819Z,70.37
2018-12-26T10:16:36.970Z,69.72
2018-12-26T10:19:08.486Z,67.90
2018-12-26T10:21:43.306Z,65.99
2018-12-26T10:24:12.785Z,64.48
2018-12-26T10:26:41.920Z,64.63
2018-12-26T10:29:11.027Z,64.76
2018-12-26T10:31:40.332Z,64.48
2018-12-26T10:34:11.089Z,64.29
2018-12-26T10:36:40.179Z,64.93
2018-12-26T10:39:09.321Z,63.70
2018-12-26T10:41:39.507Z,62.78
2018-12-26T10:44:10.250Z,64.91
2018-12-26T10:46:39.386Z,65.21
2018-12-26T10:49:15.370Z,63.35
2018-12-26T10:51:44.523Z,63.27
2018-12-26T10:54:13.695Z,65.01
2018-12-26T10:56:43.095Z,65.95
2018-12-26T10:59:14.097Z,67.41
2018-12-26T11:01:43.208Z,66.54
2018-12-26T11:04:12.342Z,66.36
2018-12-26T11:06:44.259Z,67.86
2018-12-26T11:09:14.999Z,68.22
2018-12-26T11:11:44.172Z,67.81
2018-12-26T11:14:14.683Z,66.70
2018-12-26T11:16:47.229Z,67.29
2018-12-26T11:19:22.139Z,64.37
2018-12-26T11:21:52.761Z,66.29
2018-12-26T11:24:25.717Z,63.66
2018-12-26T11:27:04.361Z,63.79
2018-12-26T11:29:33.448Z,63.91
2018-12-26T11:32:02.547Z,66.62
2018-12-26T11:34:31.641Z,63.29
2018-12-26T11:37:02.182Z,64.86
2018-12-26T11:39:31.404Z,66.53
2018-12-26T11:42:03.257Z,67.67
2018-12-26T11:44:34.140Z,65.65
2018-12-26T11:47:05.920Z,65.93
2018-12-26T11:49:34.994Z,64.18
2018-12-26T11:52:07.226Z,67.04
2018-12-26T11:54:36.391Z,68.15
2018-12-26T11:57:09.601Z,65.91
2018-12-26T11:59:41.196Z,63.83
2018-12-26T12:02:20.413Z,63.47
2018-12-26T12:04:43.405Z,63.42
2018-12-26T12:07:13.813Z,63.76
2018-12-26T12:09:49.938Z,64.72
2018-12-26T12:12:23.055Z,65.49
2018-12-26T12:14:54.588Z,66.04
2018-12-26T12:17:24.114Z,68.35
2018-12-26T12:19:55.705Z,66.99
2018-12-26T12:22:25.133Z,67.22
2018-12-26T12:25:05.033Z,67.29
2018-12-26T12:27:34.144Z,67.97
2018-12-26T12:30:04.336Z,66.42
2018-12-26T12:32:35.233Z,67.17
2018-12-26T12:35:04.537Z,65.25
2018-12-26T12:37:36.620Z,67.32
2018-12-26T12:40:07.238Z,64.30
2018-12-26T12:42:37.501Z,65.52
2018-12-26T12:45:08.352Z,66.70
2018-12-26T12:47:38.767Z,66.78
2018-12-26T12:50:08.207Z,66.33
2018-12-26T12:52:40.439Z,67.20
2018-12-26T12:55:09.594Z,66.42
2018-12-26T12:57:39.606Z,65.57
2018-12-26T13:00:11.544Z,63.69
2018-12-26T13:02:46.762Z,62.88
2018-12-26T13:05:18.048Z,62.30
2018-12-26T13:07:46.808Z,62.90
2018-12-26T13:10:18.869Z,62.78
2018-12-26T13:12:48.006Z,63.26
2018-12-26T13:15:19.415Z,61.45
2018-12-26T13:17:48.593Z,62.71
2018-12-26T13:20:20.209Z,63.87
2018-12-26T13:22:49.607Z,64.49
2018-12-26T13:25:19.260Z,64.15
2018-12-26T13:27:48.843Z,64.99
2018-12-26T13:30:20.182Z,63.71
2018-12-26T13:32:55.470Z,61.66
2018-12-26T13:35:26.920Z,65.01
2018-12-26T13:37:56.380Z,65.82
2018-12-26T13:40:30.020Z,66.80
2018-12-26T13:43:00.489Z,65.05
2018-12-26T13:45:35.421Z,61.82
2018-12-26T13:48:04.634Z,63.33
2018-12-26T13:50:36.835Z,61.24
2018-12-26T13:53:06.016Z,60.61
2018-12-26T13:55:35.212Z,59.22
2018-12-26T13:58:04.463Z,59.10
2018-12-26T14:00:37.899Z,58.78
2018-12-26T14:03:10.123Z,60.07
2018-12-26T14:05:41.460Z,61.84
2018-12-26T14:08:10.317Z,63.41
2018-12-26T14:10:39.914Z,65.00
2018-12-26T14:13:11.913Z,67.05
2018-12-26T14:15:45.126Z,66.65
2018-12-26T14:18:16.314Z,66.29
2018-12-26T14:20:48.139Z,67.59
2018-12-26T14:23:19.124Z,66.55
2018-12-26T14:25:48.251Z,65.82
2018-12-26T14:28:19.069Z,66.50
2018-12-26T14:30:49.313Z,66.57
2018-12-26T14:33:18.453Z,66.38
2018-12-26T14:35:53.683Z,67.47
2018-12-26T14:38:22.845Z,68.69
2018-12-26T14:40:52.188Z,69.67
2018-12-26T14:43:21.285Z,69.39
2018-12-26T14:45:50.463Z,68.43
2018-12-26T14:48:19.582Z,67.57
2018-12-26T14:50:50.747Z,66.61
2018-12-26T14:53:20.951Z,66.25
2018-12-26T14:55:51.670Z,66.33
2018-12-26T14:58:22.499Z,66.91
2018-12-26T15:00:51.613Z,67.16
2018-12-26T15:03:20.701Z,66.97
2018-12-26T15:05:50.024Z,66.52
2018-12-26T15:08:20.415Z,66.67
2018-12-26T15:10:50.059Z,66.64
2018-12-26T15:13:19.108Z,67.75
2018-12-26T15:15:49.413Z,68.73
2018-12-26T15:18:20.599Z,69.06
2018-12-26T15:20:54.723Z,70.02
2018-12-26T15:23:22.164Z,70.10
2018-12-26T15:25:51.280Z,69.74
2018-12-26T15:28:20.399Z,69.62
2018-12-26T15:30:49.575Z,69.76
2018-12-26T15:33:23.128Z,69.82
2018-12-26T15:35:52.809Z,70.15
2018-12-26T15:38:21.936Z,70.26
2018-12-26T15:40:51.964Z,70.26
2018-12-26T15:43:21.049Z,70.74
2018-12-26T15:45:56.295Z,70.64
2018-12-26T15:48:25.795Z,70.33
2018-12-26T15:50:59.311Z,70.45
2018-12-26T15:53:34.111Z,69.50
2018-12-26T15:56:06.012Z,68.85
2018-12-26T15:58:35.239Z,68.42
2018-12-26T16:01:07.285Z,68.37
2018-12-26T16:03:38.615Z,68.52
2018-12-26T16:06:09.970Z,68.67
2018-12-26T16:08:51.306Z,67.92
2018-12-26T16:11:21.405Z,67.51
2018-12-26T16:13:50.875Z,69.21
2018-12-26T16:16:24.237Z,67.12
2018-12-26T16:18:53.557Z,67.35
2018-12-26T16:21:23.988Z,66.60
2018-12-26T16:23:55.928Z,66.35
2018-12-26T16:26:27.064Z,67.76
2018-12-26T16:29:00.650Z,66.26
2018-12-26T16:31:29.807Z,65.82
2018-12-26T16:34:00.305Z,66.59
2018-12-26T16:36:30.674Z,65.00
2018-12-26T16:39:09.659Z,64.11
2018-12-26T16:41:39.441Z,64.76
2018-12-26T16:44:13.583Z,65.08
2018-12-26T16:46:47.600Z,64.97
2018-12-26T16:49:21.500Z,65.10
2018-12-26T16:51:55.313Z,64.89
2018-12-26T16:54:26.204Z,64.36
2018-12-26T16:56:55.511Z,64.58
2018-12-26T16:59:28.905Z,63.43
2018-12-26T17:02:00.476Z,63.97
2018-12-26T17:04:29.672Z,63.74
2018-12-26T17:06:58.768Z,62.40
2018-12-26T17:09:31.644Z,65.77
2018-12-26T17:12:00.753Z,63.65
2018-12-26T17:14:29.885Z,63.59
2018-12-26T17:16:59.182Z,63.49
2018-12-26T17:19:29.625Z,62.83
2018-12-26T17:21:59.080Z,63.37
2018-12-26T17:24:28.170Z,64.31
2018-12-26T17:26:57.375Z,65.19
2018-12-26T17:29:28.624Z,65.50
2018-12-26T17:31:57.759Z,64.50
2018-12-26T17:34:32.354Z,65.42
2018-12-26T17:37:01.557Z,65.60
2018-12-26T17:39:32.876Z,65.20
2018-12-26T17:42:01.978Z,65.25
2018-12-26T17:44:32.311Z,65.75
2018-12-26T17:47:04.646Z,65.08
2018-12-26T17:49:35.246Z,65.08
2018-12-26T17:52:04.424Z,65.83
2018-12-26T17:55:04.318Z,66.12
2018-12-26T17:57:41.976Z,66.32
2018-12-26T18:01:03.677Z,63.59
2018-12-26T18:03:32.850Z,65.77
2018-12-26T18:06:02.331Z,69.25
2018-12-26T18:08:37.366Z,70.34
2018-12-26T18:11:06.489Z,67.79
2018-12-26T18:13:35.609Z,65.76
2018-12-26T18:16:04.820Z,67.85
2018-12-26T18:18:40.387Z,66.65
2018-12-26T18:21:09.886Z,66.67
2018-12-26T18:23:40.951Z,66.63
2018-12-26T18:26:10.067Z,67.01
2018-12-26T18:28:41.724Z,65.56
2018-12-26T18:31:21.968Z,64.76
2018-12-26T18:33:45.552Z,66.74
2018-12-26T18:36:19.799Z,68.02
2018-12-26T18:38:48.905Z,69.29
2018-12-26T18:41:18.021Z,68.43
2018-12-26T18:43:48.133Z,67.01
2018-12-26T18:46:20.137Z,65.42
2018-12-26T18:48:49.309Z,66.18
2018-12-26T18:51:19.506Z,65.74
2018-12-26T18:53:49.964Z,66.34
2018-12-26T18:56:22.107Z,67.06
2018-12-26T18:58:57.405Z,65.82
2018-12-26T19:01:30.653Z,66.03
2018-12-26T19:03:57.513Z,66.40
2018-12-26T19:06:26.606Z,66.90
2018-12-26T19:08:57.030Z,65.20
2018-12-26T19:11:32.762Z,66.11
2018-12-26T19:14:01.936Z,65.23
2018-12-26T19:16:31.029Z,66.46
2018-12-26T19:19:02.946Z,66.09
2018-12-26T19:21:34.087Z,66.65
2018-12-26T19:24:07.740Z,66.15
2018-12-26T19:26:36.964Z,66.09
2018-12-26T19:29:06.099Z,66.19
2018-12-26T19:31:39.507Z,66.56
2018-12-26T19:34:06.252Z,66.78
2018-12-26T19:36:35.390Z,66.85
2018-12-26T19:39:06.411Z,67.17
2018-12-26T19:41:35.524Z,66.46
2018-12-26T19:44:04.705Z,65.67
2018-12-26T19:46:33.790Z,66.42
2018-12-26T19:49:05.789Z,66.65
2018-12-26T19:51:36.985Z,67.97
2018-12-26T19:54:06.097Z,68.67
2018-12-26T19:56:35.506Z,67.34
2018-12-26T19:59:04.913Z,68.03
2018-12-26T20:01:48.153Z,68.83
2018-12-26T20:04:04.838Z,69.44
2018-12-26T20:06:36.973Z,69.40
2018-12-26T20:09:07.453Z,69.23
2018-12-26T20:11:38.630Z,70.27
2018-12-26T20:14:07.927Z,69.80
2018-12-26T20:16:37.092Z,69.91
2018-12-26T20:19:15.439Z,69.47
2018-12-26T20:21:44.585Z,68.06
2018-12-26T20:24:17.861Z,67.78
2018-12-26T20:26:51.280Z,68.13
2018-12-26T20:29:23.428Z,68.66
2018-12-26T20:31:56.853Z,67.56
2018-12-26T20:34:29.528Z,67.25
2018-12-26T20:37:01.697Z,68.03
2018-12-26T20:39:32.076Z,66.63
2018-12-26T20:42:01.116Z,65.52
2018-12-26T20:44:30.708Z,65.52
2018-12-26T20:47:00.074Z,65.47
2018-12-26T20:49:30.478Z,65.28
2018-12-26T20:52:02.143Z,67.77
2018-12-26T20:54:32.071Z,69.21
2018-12-26T20:57:06.799Z,68.46
2018-12-26T20:59:42.272Z,69.54
2018-12-26T21:02:12.640Z,70.66
2018-12-26T21:04:43.368Z,70.43
2018-12-26T21:07:12.487Z,69.24
2018-12-26T21:09:41.617Z,68.33
2018-12-26T21:12:11.844Z,69.61
2018-12-26T21:14:40.956Z,69.09
2018-12-26T21:17:11.387Z,67.73
2018-12-26T21:19:40.851Z,66.57
2018-12-26T21:22:09.968Z,67.16
2018-12-26T21:24:39.069Z,68.77
2018-12-26T21:27:08.239Z,67.73
2018-12-26T21:29:38.556Z,67.56
2018-12-26T21:32:14.057Z,67.16
2018-12-26T21:34:39.420Z,67.88
2018-12-26T21:37:08.524Z,65.83
2018-12-26T21:39:41.729Z,66.12
2018-12-26T21:42:10.859Z,66.35
2018-12-26T21:44:41.778Z,66.64
2018-12-26T21:47:11.986Z,66.45
2018-12-26T21:49:42.746Z,67.02
2018-12-26T21:52:11.931Z,67.92
2018-12-26T21:54:42.122Z,68.12
2018-12-26T21:57:11.422Z,67.39
2018-12-26T21:59:40.554Z,67.65
2018-12-26T22:02:22.365Z,66.52
2018-12-26T22:04:50.841Z,65.52
2018-12-26T22:07:21.920Z,65.83
2018-12-26T22:09:51.022Z,66.69
2018-12-26T22:12:20.418Z,66.05
2018-12-26T22:14:49.810Z,66.84
2018-12-26T22:17:21.019Z,67.90
2018-12-26T22:19:50.232Z,67.11
2018-12-26T22:22:19.374Z,67.97
2018-12-26T22:24:48.486Z,67.28
2018-12-26T22:27:20.002Z,68.25
2018-12-26T22:29:49.406Z,68.39
2018-12-26T22:32:18.655Z,68.64
2018-12-26T22:34:47.865Z,67.85
2018-12-26T22:37:18.102Z,68.02
2018-12-26T22:39:47.206Z,68.62
2018-12-26T22:42:16.370Z,69.16
2018-12-26T22:44:49.861Z,69.58
2018-12-26T22:47:18.953Z,70.09
2018-12-26T22:49:48.936Z,68.96
2018-12-26T22:52:27.078Z,70.83
2018-12-26T22:54:56.221Z,69.07
2018-12-26T22:57:26.210Z,67.62
2018-12-26T22:59:57.082Z,67.43
2018-12-26T23:02:26.322Z,65.52
2018-12-26T23:04:56.914Z,67.19
2018-12-26T23:07:29.684Z,64.92
2018-12-26T23:09:59.236Z,65.29
2018-12-26T23:12:28.338Z,65.72
2018-12-26T23:14:57.599Z,64.85
2018-12-26T23:17:26.806Z,64.04
2018-12-26T23:19:57.624Z,65.37
2018-12-26T23:22:29.506Z,66.32
2018-12-26T23:24:59.729Z,65.05
2018-12-26T23:27:28.927Z,64.38
2018-12-26T23:29:58.132Z,64.16
2018-12-26T23:32:27.603Z,62.42
2018-12-26T23:34:59.509Z,63.03
2018-12-26T23:37:30.559Z,64.80
2018-12-26T23:40:04.613Z,67.23
2018-12-26T23:42:39.190Z,67.11
2018-12-26T23:45:08.347Z,66.65
2018-12-26T23:47:37.458Z,65.85
2018-12-26T23:50:07.885Z,65.94
2018-12-26T23:52:38.033Z,66.08
2018-12-26T23:55:08.997Z,65.02
2018-12-26T23:57:42.226Z,63.66
